createdAt,value
2022-08-24T00:01:19.169Z,58.53
2022-08-24T00:03:47.192Z,59.13
2022-08-24T00:06:19.421Z,59.15
2022-08-24T00:08:49.222Z,59.08
2022-08-24T00:11:16.946Z,59.46
2022-08-24T00:13:44.545Z,60.02
2022-08-24T00:16:12.337Z,60.24
2022-08-24T00:18:39.841Z,60.87
2022-08-24T00:21:08.146Z,60.64
2022-08-24T00:23:36.163Z,60.85
2022-08-24T00:26:04.281Z,60.71
2022-08-24T00:28:31.866Z,60.84
2022-08-24T00:30:59.064Z,60.79
2022-08-24T00:33:26.462Z,61.26
2022-08-24T00:35:53.415Z,60.87
2022-08-24T00:38:20.319Z,60.98
2022-08-24T00:40:49.299Z,61.05
2022-08-24T00:43:24.181Z,61.08
2022-08-24T00:45:54.161Z,62.28
2022-08-24T00:48:27.962Z,62.85
2022-08-24T00:51:04.944Z,63.16
2022-08-24T00:53:47.805Z,63.19
2022-08-24T00:56:35.116Z,64.09
2022-08-24T00:59:11.557Z,64.59
2022-08-24T01:01:39.257Z,64.05
2022-08-24T01:04:12.106Z,63.95
2022-08-24T01:06:39.107Z,63.42
2022-08-24T01:09:06.840Z,63.57
2022-08-24T01:11:35.695Z,64.20
2022-08-24T01:14:03.879Z,66.19
2022-08-24T01:16:49.967Z,66.14
2022-08-24T01:19:55.615Z,66.73
2022-08-24T01:22:46.637Z,66.98
2022-08-24T01:25:14.492Z,67.48
2022-08-24T01:27:43.657Z,67.41
2022-08-24T01:30:14.310Z,66.86
2022-08-24T01:32:58.512Z,66.81
2022-08-24T01:35:26.468Z,66.85
2022-08-24T01:37:58.723Z,67.34
2022-08-24T01:40:34.874Z,68.02
2022-08-24T01:43:04.152Z,67.62
2022-08-24T01:45:31.192Z,68.10
2022-08-24T01:47:59.826Z,68.50
2022-08-24T01:50:27.039Z,68.64
2022-08-24T01:53:04.749Z,68.91
2022-08-24T01:55:33.286Z,68.57
2022-08-24T01:58:00.632Z,68.39
2022-08-24T02:00:29.745Z,68.26
2022-08-24T02:02:57.327Z,67.82
2022-08-24T02:05:25.611Z,67.70
2022-08-24T02:07:53.033Z,67.78
2022-08-24T02:10:21.926Z,68.43
2022-08-24T02:12:57.782Z,68.79
2022-08-24T02:15:31.550Z,68.97
2022-08-24T02:17:59.762Z,68.67
2022-08-24T02:20:27.421Z,68.89
2022-08-24T02:22:55.225Z,68.66
2022-08-24T02:25:22.163Z,68.11
2022-08-24T02:27:49.340Z,68.13
2022-08-24T02:30:18.032Z,68.47
2022-08-24T02:32:45.221Z,68.89
2022-08-24T02:35:12.777Z,68.59
2022-08-24T02:37:43.391Z,69.03
2022-08-24T02:40:13.529Z,69.16
2022-08-24T02:42:41.080Z,69.17
2022-08-24T02:45:09.754Z,69.28
2022-08-24T02:47:38.862Z,69.40
2022-08-24T02:50:12.289Z,69.54
2022-08-24T02:52:40.765Z,69.73
2022-08-24T02:55:12.151Z,70.14
2022-08-24T02:57:39.894Z,70.14
2022-08-24T03:00:12.941Z,70.35
2022-08-24T03:02:51.520Z,70.73
2022-08-24T03:05:19.493Z,70.97
2022-08-24T03:07:46.941Z,71.43
2022-08-24T03:10:14.419Z,71.36
2022-08-24T03:12:41.746Z,71.52
2022-08-24T03:15:11.334Z,71.54
2022-08-24T03:17:39.980Z,71.86
2022-08-24T03:20:14.969Z,71.66
2022-08-24T03:22:42.834Z,71.82
2022-08-24T03:25:12.226Z,71.47
2022-08-24T03:27:39.805Z,71.59
2022-08-24T03:30:12.739Z,72.29
2022-08-24T03:32:42.246Z,72.44
2022-08-24T03:35:11.537Z,72.98
2022-08-24T03:37:38.556Z,72.83
2022-08-24T03:40:07.848Z,72.85
2022-08-24T03:42:49.736Z,72.92
2022-08-24T03:45:17.411Z,73.11
2022-08-24T03:47:45.420Z,73.49
2022-08-24T03:50:13.608Z,72.93
2022-08-24T03:52:42.058Z,73.19
2022-08-24T03:55:10.814Z,73.12
2022-08-24T03:57:38.064Z,73.29
2022-08-24T04:00:10.894Z,73.72
2022-08-24T04:02:50.794Z,73.95
2022-08-24T04:05:21.198Z,73.59
2022-08-24T04:07:48.181Z,73.35
2022-08-24T04:10:15.073Z,73.67
2022-08-24T04:12:42.344Z,73.89
2022-08-24T04:15:10.200Z,73.68
2022-08-24T04:17:37.329Z,74.03
2022-08-24T04:20:07.602Z,74.04
2022-08-24T04:22:36.820Z,73.68
2022-08-24T04:25:09.558Z,74.28
2022-08-24T04:27:40.889Z,73.77
2022-08-24T04:30:09.810Z,73.86
2022-08-24T04:33:03.735Z,74.20
2022-08-24T04:35:30.977Z,73.94
2022-08-24T04:37:58.794Z,73.94
2022-08-24T04:40:25.838Z,73.74
2022-08-24T04:42:53.061Z,74.03
2022-08-24T04:45:20.192Z,74.18
2022-08-24T04:47:47.197Z,73.83
2022-08-24T04:50:14.181Z,74.24
2022-08-24T04:52:43.233Z,73.97
2022-08-24T04:55:10.918Z,74.45
2022-08-24T04:57:38.163Z,74.61
2022-08-24T05:00:09.536Z,74.57
2022-08-24T05:02:44.888Z,74.72
2022-08-24T05:05:14.355Z,74.31
2022-08-24T05:07:41.972Z,74.36
2022-08-24T05:10:11.090Z,75.00
2022-08-24T05:12:38.350Z,74.74
2022-08-24T05:15:09.892Z,74.56
2022-08-24T05:17:41.386Z,74.27
2022-08-24T05:20:11.728Z,74.48
2022-08-24T05:22:39.331Z,74.09
2022-08-24T05:25:06.645Z,74.81
2022-08-24T05:27:35.224Z,74.71
2022-08-24T05:30:03.176Z,74.61
2022-08-24T05:32:30.338Z,74.67
2022-08-24T05:35:01.333Z,74.30
2022-08-24T05:37:28.557Z,74.47
2022-08-24T05:40:16.837Z,74.27
2022-08-24T05:42:48.480Z,73.98
2022-08-24T05:45:16.422Z,73.72
2022-08-24T05:47:43.533Z,73.53
2022-08-24T05:50:37.223Z,73.00
2022-08-24T05:53:04.764Z,73.20
2022-08-24T05:55:31.974Z,73.43
2022-08-24T05:57:59.148Z,73.96
2022-08-24T06:00:26.882Z,73.41
2022-08-24T06:02:54.165Z,73.26
2022-08-24T06:05:22.279Z,73.25
2022-08-24T06:07:49.868Z,72.77
2022-08-24T06:10:35.953Z,72.45
2022-08-24T06:13:05.570Z,71.69
2022-08-24T06:15:32.988Z,71.26
2022-08-24T06:18:00.158Z,70.59
2022-08-24T06:20:27.312Z,69.95
2022-08-24T06:22:54.518Z,69.69
2022-08-24T06:25:42.158Z,69.29
2022-08-24T06:28:09.249Z,68.82
2022-08-24T06:30:37.630Z,68.74
2022-08-24T06:33:15.480Z,68.79
2022-08-24T06:35:47.012Z,68.85
2022-08-24T06:38:14.672Z,68.86
2022-08-24T06:40:42.849Z,68.85
2022-08-24T06:43:11.035Z,68.37
2022-08-24T06:45:47.371Z,68.31
2022-08-24T06:48:17.209Z,67.32
2022-08-24T06:50:45.150Z,67.20
2022-08-24T06:53:14.889Z,66.78
2022-08-24T06:55:50.593Z,66.75
2022-08-24T06:58:18.995Z,66.73
2022-08-24T07:00:47.989Z,65.94
2022-08-24T07:03:16.742Z,66.05
2022-08-24T07:05:55.437Z,65.88
2022-08-24T07:08:37.630Z,65.19
2022-08-24T07:11:09.029Z,64.61
2022-08-24T07:13:36.068Z,64.10
2022-08-24T07:16:04.821Z,63.68
2022-08-24T07:18:33.828Z,62.66
2022-08-24T07:21:04.141Z,62.40
2022-08-24T07:23:48.784Z,62.40
2022-08-24T07:26:21.547Z,61.84
2022-08-24T07:29:05.044Z,60.87
2022-08-24T07:31:40.738Z,60.49
2022-08-24T07:34:16.839Z,60.90
2022-08-24T07:36:45.030Z,60.83
2022-08-24T07:39:12.633Z,59.96
2022-08-24T07:42:02.559Z,59.91
2022-08-24T07:44:31.669Z,59.20
2022-08-24T07:47:04.101Z,59.12
2022-08-24T07:49:42.767Z,58.63
2022-08-24T07:52:10.628Z,58.47
2022-08-24T07:54:37.877Z,56.43
2022-08-24T07:57:06.568Z,56.15
2022-08-24T07:59:36.125Z,55.79
2022-08-24T08:02:05.146Z,55.33
2022-08-24T08:04:32.207Z,54.50
2022-08-24T08:07:01.791Z,55.32
2022-08-24T08:09:31.427Z,55.21
2022-08-24T08:11:59.281Z,54.51
2022-08-24T08:14:26.457Z,52.88
2022-08-24T08:16:54.029Z,53.80
2022-08-24T08:19:21.038Z,53.10
2022-08-24T08:22:10.310Z,52.87
2022-08-24T08:24:56.785Z,52.52
2022-08-24T08:27:25.139Z,52.15
2022-08-24T08:29:52.537Z,51.06
2022-08-24T08:32:20.091Z,50.76
2022-08-24T08:34:51.517Z,50.82
2022-08-24T08:37:18.897Z,50.19
2022-08-24T08:39:46.094Z,49.63
2022-08-24T08:42:24.140Z,49.49
2022-08-24T08:45:22.512Z,49.71
2022-08-24T08:48:32.081Z,49.02
2022-08-24T08:51:38.514Z,48.25
2022-08-24T08:54:32.297Z,47.59
2022-08-24T08:57:23.496Z,47.37
2022-08-24T09:00:10.729Z,46.92
2022-08-24T09:02:56.521Z,46.72
2022-08-24T09:09:10.075Z,45.14
2022-08-24T09:11:54.574Z,45.24
2022-08-24T09:14:57.217Z,44.81
2022-08-24T09:18:18.137Z,44.52
2022-08-24T09:21:16.491Z,44.16
2022-08-24T09:23:52.716Z,44.23
2022-08-24T09:26:32.976Z,43.74
2022-08-24T09:29:16.853Z,42.94
2022-08-24T09:31:57.127Z,43.03
2022-08-24T09:34:50.712Z,42.03
2022-08-24T09:37:57.898Z,42.45
2022-08-24T09:40:45.053Z,41.41
2022-08-24T09:43:33.352Z,41.55
2022-08-24T09:46:31.365Z,41.56
2022-08-24T09:49:34.490Z,41.14
2022-08-24T09:52:37.850Z,41.86
2022-08-24T09:55:26.822Z,40.26
2022-08-24T09:58:15.365Z,40.11
2022-08-24T10:01:06.284Z,40.29
2022-08-24T10:04:29.495Z,39.70
2022-08-24T10:08:15.697Z,38.85
2022-08-24T10:11:12.173Z,39.51
2022-08-24T10:13:53.545Z,38.72
2022-08-24T10:16:57.930Z,38.43
2022-08-24T10:20:10.341Z,37.35
2022-08-24T10:23:22.086Z,37.74
2022-08-24T10:25:57.241Z,37.91
2022-08-24T10:28:24.345Z,37.74
2022-08-24T10:31:12.950Z,38.32
2022-08-24T10:34:10.973Z,38.00
2022-08-24T10:36:56.619Z,37.10
2022-08-24T10:40:22.290Z,36.55
2022-08-24T10:43:34.921Z,36.81
2022-08-24T10:46:43.286Z,36.00
2022-08-24T10:49:39.271Z,36.44
2022-08-24T10:52:53.310Z,35.87
2022-08-24T10:55:26.346Z,35.54
2022-08-24T10:58:38.069Z,37.29
2022-08-24T11:01:24.027Z,35.57
2022-08-24T11:04:14.242Z,35.12
2022-08-24T11:07:23.028Z,35.18
2022-08-24T11:10:01.352Z,34.77
2022-08-24T11:12:42.783Z,33.61
2022-08-24T11:15:18.618Z,32.82
2022-08-24T11:18:01.568Z,33.13
2022-08-24T11:20:47.092Z,33.88
2022-08-24T11:23:22.580Z,33.56
2022-08-24T11:26:03.605Z,33.68
2022-08-24T11:28:40.939Z,32.96
2022-08-24T11:31:29.605Z,33.53
2022-08-24T11:34:17.625Z,33.12
2022-08-24T11:36:44.765Z,33.31
2022-08-24T11:39:17.762Z,33.41
2022-08-24T11:42:35.791Z,33.42
2022-08-24T11:45:10.359Z,33.97
2022-08-24T11:48:05.385Z,33.60
2022-08-24T11:50:45.252Z,34.07
2022-08-24T11:56:25.904Z,33.94
2022-08-24T11:59:08.322Z,34.36
2022-08-24T12:01:51.646Z,35.51
2022-08-24T12:04:42.787Z,35.48
2022-08-24T12:07:51.136Z,35.73
2022-08-24T12:10:46.984Z,35.79
2022-08-24T12:14:15.142Z,35.79
2022-08-24T12:17:03.123Z,36.14
2022-08-24T12:19:36.037Z,36.14
2022-08-24T12:22:07.548Z,36.87
2022-08-24T12:24:54.448Z,36.99
2022-08-24T12:27:33.402Z,36.59
2022-08-24T12:30:15.786Z,36.74
2022-08-24T12:33:03.092Z,37.55
2022-08-24T12:35:34.521Z,37.48
2022-08-24T12:38:22.089Z,37.10
2022-08-24T12:41:19.823Z,37.34
2022-08-24T12:43:56.503Z,37.65
2022-08-24T12:46:25.888Z,37.95
2022-08-24T12:49:07.528Z,37.64
2022-08-24T12:52:21.304Z,37.64
2022-08-24T12:55:19.772Z,37.55
2022-08-24T12:58:53.967Z,36.77
2022-08-24T13:01:27.877Z,37.24
2022-08-24T13:04:31.462Z,37.03
2022-08-24T13:07:27.344Z,36.20
2022-08-24T13:09:59.917Z,34.28
2022-08-24T13:12:41.977Z,33.38
2022-08-24T13:15:24.143Z,33.73
2022-08-24T13:18:03.306Z,31.58
2022-08-24T13:20:36.750Z,32.40
2022-08-24T13:23:18.859Z,31.43
2022-08-24T13:25:51.365Z,30.83
2022-08-24T13:28:21.300Z,31.17
2022-08-24T13:30:54.069Z,32.05
2022-08-24T13:33:34.825Z,32.19
2022-08-24T13:36:08.346Z,31.04
2022-08-24T13:38:35.134Z,31.00
2022-08-24T13:41:08.083Z,31.05
2022-08-24T13:43:58.585Z,30.81
2022-08-24T13:46:50.165Z,29.75
2022-08-24T13:50:08.108Z,29.36
2022-08-24T13:53:32.820Z,30.14
2022-08-24T13:56:36.812Z,29.39
2022-08-24T13:59:22.590Z,29.14
2022-08-24T14:02:08.185Z,29.06
2022-08-24T14:04:47.383Z,28.94
2022-08-24T14:07:22.735Z,28.61
2022-08-24T14:10:31.628Z,30.12
2022-08-24T14:13:26.459Z,30.16
2022-08-24T14:16:47.885Z,29.66
2022-08-24T14:19:29.374Z,29.40
2022-08-24T14:22:33.218Z,28.53
2022-08-24T14:25:17.465Z,28.83
2022-08-24T14:27:50.413Z,28.47
2022-08-24T14:30:20.370Z,28.70
2022-08-24T14:32:59.157Z,28.60
2022-08-24T14:35:36.532Z,29.25
2022-08-24T14:38:24.142Z,29.58
2022-08-24T14:41:16.830Z,29.30
2022-08-24T14:43:49.788Z,29.84
2022-08-24T14:46:29.339Z,30.08
2022-08-24T14:49:27.877Z,29.78
2022-08-24T14:52:24.278Z,30.70
2022-08-24T14:55:19.897Z,30.65
2022-08-24T14:58:29.143Z,30.74
2022-08-24T15:01:14.678Z,31.01
2022-08-24T15:04:37.048Z,30.87
2022-08-24T15:07:30.065Z,31.29
2022-08-24T15:09:59.641Z,30.95
2022-08-24T15:12:44.229Z,30.64
2022-08-24T15:15:34.023Z,30.87
2022-08-24T15:18:20.064Z,31.76
2022-08-24T15:21:29.781Z,32.30
2022-08-24T15:24:16.604Z,31.66
2022-08-24T15:27:21.793Z,31.67
2022-08-24T15:29:57.381Z,31.81
2022-08-24T15:32:40.911Z,31.67
2022-08-24T15:35:08.000Z,31.57
2022-08-24T15:37:39.672Z,30.95
2022-08-24T15:40:24.824Z,30.93
2022-08-24T15:42:51.998Z,31.26
2022-08-24T15:45:21.000Z,31.80
2022-08-24T15:47:51.932Z,32.46
2022-08-24T15:50:33.816Z,31.84
2022-08-24T15:53:25.703Z,32.12
2022-08-24T15:55:53.400Z,32.15
2022-08-24T15:58:32.176Z,32.21
2022-08-24T16:01:31.010Z,32.43
2022-08-24T16:04:08.927Z,32.38
2022-08-24T16:06:46.366Z,32.13
2022-08-24T16:09:19.556Z,31.79
2022-08-24T16:12:09.862Z,32.30
2022-08-24T16:14:47.671Z,32.47
2022-08-24T16:17:42.284Z,32.85
2022-08-24T16:20:34.063Z,32.65
2022-08-24T16:23:09.760Z,32.76
2022-08-24T16:25:47.008Z,32.49
2022-08-24T16:28:23.072Z,33.24
2022-08-24T16:31:00.834Z,32.64
2022-08-24T16:33:37.393Z,33.06
2022-08-24T16:36:15.611Z,34.13
2022-08-24T16:38:49.001Z,33.71
2022-08-24T16:41:20.528Z,33.31
2022-08-24T16:43:47.952Z,33.52
2022-08-24T16:46:21.264Z,33.91
2022-08-24T16:48:48.524Z,34.29
2022-08-24T16:51:15.392Z,34.40
2022-08-24T16:53:42.805Z,34.36
2022-08-24T16:56:12.490Z,35.23
2022-08-24T16:58:42.091Z,35.27
2022-08-24T17:01:09.081Z,36.09
2022-08-24T17:03:36.144Z,35.63
2022-08-24T17:06:03.148Z,36.29
2022-08-24T17:08:34.602Z,35.74
2022-08-24T17:11:04.379Z,36.26
2022-08-24T17:13:49.017Z,35.78
2022-08-24T17:16:17.038Z,36.56
2022-08-24T17:18:44.159Z,36.20
2022-08-24T17:21:11.113Z,36.26
2022-08-24T17:23:40.787Z,36.43
2022-08-24T17:26:20.127Z,36.79
2022-08-24T17:28:51.734Z,36.65
2022-08-24T17:31:18.740Z,37.18
2022-08-24T17:33:45.700Z,37.34
2022-08-24T17:36:21.833Z,37.66
2022-08-24T17:38:55.881Z,37.47
2022-08-24T17:41:25.487Z,37.89
2022-08-24T17:43:53.363Z,37.92
2022-08-24T17:46:20.774Z,38.12
2022-08-24T17:48:48.234Z,37.82
2022-08-24T17:51:15.907Z,37.68
2022-08-24T17:53:42.897Z,38.04
2022-08-24T17:56:13.047Z,38.42
2022-08-24T17:59:00.553Z,38.35
2022-08-24T18:01:27.701Z,38.73
2022-08-24T18:03:54.737Z,39.04
2022-08-24T18:06:23.969Z,39.23
2022-08-24T18:08:52.009Z,39.15
2022-08-24T18:11:21.598Z,39.60
2022-08-24T18:13:51.343Z,39.69
2022-08-24T18:16:21.304Z,39.86
2022-08-24T18:18:51.873Z,40.09
2022-08-24T18:21:20.114Z,40.45
2022-08-24T18:23:48.512Z,40.49
2022-08-24T18:26:25.953Z,40.54
2022-08-24T18:29:00.432Z,40.38
2022-08-24T18:31:31.062Z,40.65
2022-08-24T18:33:58.027Z,41.04
2022-08-24T18:36:25.013Z,41.17
2022-08-24T18:38:53.265Z,41.41
2022-08-24T18:41:21.105Z,41.47
2022-08-24T18:43:48.705Z,41.87
2022-08-24T18:46:15.826Z,42.11
2022-08-24T18:48:42.743Z,42.15
2022-08-24T18:51:13.166Z,42.43
2022-08-24T18:53:40.161Z,42.56
2022-08-24T18:56:12.278Z,42.87
2022-08-24T18:58:40.305Z,42.89
2022-08-24T19:01:07.404Z,43.07
2022-08-24T19:03:35.015Z,43.48
2022-08-24T19:06:02.099Z,43.53
2022-08-24T19:08:42.041Z,44.15
2022-08-24T19:11:10.045Z,43.96
2022-08-24T19:13:39.867Z,44.15
2022-08-24T19:16:13.124Z,44.61
2022-08-24T19:18:40.275Z,44.26
2022-08-24T19:21:07.432Z,44.62
2022-08-24T19:23:36.141Z,44.35
2022-08-24T19:26:04.250Z,44.68
2022-08-24T19:28:31.840Z,44.69
2022-08-24T19:31:02.252Z,44.71
2022-08-24T19:33:38.026Z,45.19
2022-08-24T19:36:06.105Z,45.36
2022-08-24T19:38:33.081Z,45.41
2022-08-24T19:41:00.835Z,45.74
2022-08-24T19:43:29.375Z,45.60
2022-08-24T19:46:08.506Z,46.09
2022-08-24T19:48:39.738Z,46.53
2022-08-24T19:51:11.603Z,46.73
2022-08-24T19:53:39.192Z,46.73
2022-08-24T19:56:07.415Z,47.00
2022-08-24T19:58:57.105Z,47.41
2022-08-24T20:01:34.451Z,47.17
2022-08-24T20:04:04.365Z,46.97
2022-08-24T20:06:36.261Z,47.52
2022-08-24T20:09:04.780Z,46.79
2022-08-24T20:11:32.102Z,47.36
2022-08-24T20:13:59.131Z,47.40
2022-08-24T20:16:31.945Z,47.46
2022-08-24T20:19:00.631Z,47.06
2022-08-24T20:21:30.018Z,47.72
2022-08-24T20:24:05.520Z,47.42
2022-08-24T20:26:41.834Z,47.53
2022-08-24T20:29:09.741Z,48.06
2022-08-24T20:31:36.963Z,48.31
2022-08-24T20:34:04.757Z,48.19
2022-08-24T20:36:39.984Z,48.05
2022-08-24T20:39:11.161Z,48.12
2022-08-24T20:41:38.988Z,48.51
2022-08-24T20:44:09.040Z,48.07
2022-08-24T20:46:38.311Z,48.69
2022-08-24T20:49:07.678Z,48.90
2022-08-24T20:51:41.488Z,48.59
2022-08-24T20:54:10.248Z,48.95
2022-08-24T20:56:38.754Z,48.97
2022-08-24T20:59:09.724Z,49.49
2022-08-24T21:01:38.268Z,49.26
2022-08-24T21:04:05.725Z,49.76
2022-08-24T21:06:34.185Z,49.65
2022-08-24T21:09:02.690Z,49.54
2022-08-24T21:11:30.244Z,50.17
2022-08-24T21:13:57.328Z,50.05
2022-08-24T21:16:24.474Z,50.01
2022-08-24T21:18:51.611Z,50.17
2022-08-24T21:21:19.517Z,50.78
2022-08-24T21:23:46.390Z,50.66
2022-08-24T21:26:23.713Z,50.87
2022-08-24T21:28:50.857Z,51.02
2022-08-24T21:31:18.144Z,50.99
2022-08-24T21:34:03.558Z,50.97
2022-08-24T21:36:31.805Z,51.80
2022-08-24T21:38:59.842Z,51.57
2022-08-24T21:41:29.438Z,52.23
2022-08-24T21:43:57.335Z,52.20
2022-08-24T21:46:32.614Z,52.29
2022-08-24T21:49:00.415Z,52.88
2022-08-24T21:51:27.949Z,53.20
2022-08-24T21:53:59.470Z,53.47
2022-08-24T21:56:30.898Z,53.27
2022-08-24T21:58:58.322Z,53.78
2022-08-24T22:01:25.289Z,53.68
2022-08-24T22:03:52.346Z,54.04
2022-08-24T22:06:19.336Z,54.89
2022-08-24T22:08:46.291Z,54.47
2022-08-24T22:11:18.026Z,54.63
2022-08-24T22:13:46.760Z,54.54
2022-08-24T22:16:13.774Z,54.25
2022-08-24T22:18:41.539Z,54.27
2022-08-24T22:21:12.912Z,54.24
2022-08-24T22:23:40.878Z,54.61
2022-08-24T22:26:08.484Z,54.91
2022-08-24T22:28:38.344Z,54.74
2022-08-24T22:31:22.434Z,54.90
2022-08-24T22:33:49.687Z,55.12
2022-08-24T22:36:17.344Z,55.01
2022-08-24T22:38:45.210Z,55.11
2022-08-24T22:41:12.325Z,55.51
2022-08-24T22:43:57.841Z,55.75
2022-08-24T22:46:26.380Z,55.79
2022-08-24T22:48:54.316Z,56.11
2022-08-24T22:51:21.984Z,56.13
2022-08-24T22:53:49.463Z,56.30
2022-08-24T22:56:24.011Z,56.23
2022-08-24T22:58:51.752Z,56.34
2022-08-24T23:01:21.005Z,56.34
2022-08-24T23:03:49.702Z,56.46
2022-08-24T23:06:17.439Z,56.72
2022-08-24T23:08:44.824Z,56.79
2022-08-24T23:11:12.499Z,57.01
2022-08-24T23:13:39.768Z,56.91
2022-08-24T23:16:10.253Z,57.11
2022-08-24T23:18:56.460Z,57.26
2022-08-24T23:21:23.713Z,57.14
2022-08-24T23:23:51.005Z,57.67
2022-08-24T23:26:18.547Z,57.71
2022-08-24T23:28:46.926Z,57.40
2022-08-24T23:31:20.062Z,57.62
2022-08-24T23:33:47.508Z,58.09
2022-08-24T23:36:21.465Z,57.74
2022-08-24T23:38:52.487Z,58.21
2022-08-24T23:41:23.717Z,58.05
2022-08-24T23:43:50.666Z,58.26
2022-08-24T23:46:17.959Z,58.19
2022-08-24T23:48:51.010Z,58.72
2022-08-24T23:51:23.098Z,58.78
2022-08-24T23:53:50.809Z,58.61
2022-08-24T23:56:31.833Z,58.85
2022-08-24T23:59:06.634Z,59.27
